sensor_id;sensor_type;location;lat;lon;timestamp;pressure;altitude;pressure_sealevel;temperature
60615;BMP280;46444;45.590;5.284;2023-01-04T06:11:40;100382.69;;;8.47
60615;BMP280;46444;45.590;5.284;2023-01-04T06:14:06;100380.88;;;8.48
60615;BMP280;46444;45.590;5.284;2023-01-04T06:16:31;100383.53;;;8.48
60615;BMP280;46444;45.590;5.284;2023-01-04T06:18:57;100390.91;;;8.46
60615;BMP280;46444;45.590;5.284;2023-01-04T06:21:22;100387.50;;;8.52
60615;BMP280;46444;45.590;5.284;2023-01-04T06:23:50;100386.94;;;8.56
60615;BMP280;46444;45.590;5.284;2023-01-04T06:26:15;100390.22;;;8.58
60615;BMP280;46444;45.590;5.284;2023-01-04T06:28:40;100397.22;;;8.59
60615;BMP280;46444;45.590;5.284;2023-01-04T06:31:07;100397.22;;;8.59
60615;BMP280;46444;45.590;5.284;2023-01-04T06:33:33;100392.72;;;8.59
60615;BMP280;46444;45.590;5.284;2023-01-04T06:35:59;100403.19;;;8.61
60615;BMP280;46444;45.590;5.284;2023-01-04T06:38:24;100401.44;;;8.68
60615;BMP280;46444;45.590;5.284;2023-01-04T06:40:50;100403.47;;;8.66
60615;BMP280;46444;45.590;5.284;2023-01-04T06:43:15;100402.47;;;8.67
60615;BMP280;46444;45.590;5.284;2023-01-04T06:45:41;100414.94;;;8.66
60615;BMP280;46444;45.590;5.284;2023-01-04T06:48:07;100419.53;;;8.72
60615;BMP280;46444;45.590;5.284;2023-01-04T06:50:32;100428.56;;;8.71
60615;BMP280;46444;45.590;5.284;2023-01-04T06:52:57;100441.13;;;8.63
60615;BMP280;46444;45.590;5.284;2023-01-04T06:55:23;100441.31;;;8.47
60615;BMP280;46444;45.590;5.284;2023-01-04T06:57:48;100447.38;;;8.41
60615;BMP280;46444;45.590;5.284;2023-01-04T07:00:14;100441.88;;;8.43
60615;BMP280;46444;45.590;5.284;2023-01-04T07:02:39;100443.22;;;8.38
60615;BMP280;46444;45.590;5.284;2023-01-04T07:05:05;100446.72;;;8.39
60615;BMP280;46444;45.590;5.284;2023-01-04T07:07:32;100456.03;;;8.43
60615;BMP280;46444;45.590;5.284;2023-01-04T07:09:57;100451.03;;;8.40
60615;BMP280;46444;45.590;5.284;2023-01-04T07:12:23;100448.66;;;8.45
60615;BMP280;46444;45.590;5.284;2023-01-04T07:14:48;100455.38;;;8.41
60615;BMP280;46444;45.590;5.284;2023-01-04T07:17:13;100454.00;;;8.45
60615;BMP280;46444;45.590;5.284;2023-01-04T07:19:39;100463.00;;;8.44
60615;BMP280;46444;45.590;5.284;2023-01-04T07:22:04;100459.31;;;8.45
60615;BMP280;46444;45.590;5.284;2023-01-04T07:24:29;100450.69;;;8.43
60615;BMP280;46444;45.590;5.284;2023-01-04T07:26:55;100450.69;;;8.43
60615;BMP280;46444;45.590;5.284;2023-01-04T07:29:20;100439.31;;;8.49
60615;BMP280;46444;45.590;5.284;2023-01-04T07:31:49;100440.13;;;8.49
60615;BMP280;46444;45.590;5.284;2023-01-04T07:34:16;100432.97;;;8.50
60615;BMP280;46444;45.590;5.284;2023-01-04T07:36:43;100436.72;;;8.55
60615;BMP280;46444;45.590;5.284;2023-01-04T07:39:08;100435.69;;;8.56
60615;BMP280;46444;45.590;5.284;2023-01-04T07:41:37;100439.50;;;8.62
60615;BMP280;46444;45.590;5.284;2023-01-04T07:44:03;100447.09;;;8.65
60615;BMP280;46444;45.590;5.284;2023-01-04T07:46:28;100451.06;;;8.69
60615;BMP280;46444;45.590;5.284;2023-01-04T07:48:54;100452.53;;;8.71
60615;BMP280;46444;45.590;5.284;2023-01-04T07:51:19;100442.91;;;8.70
60615;BMP280;46444;45.590;5.284;2023-01-04T07:53:44;100449.31;;;8.76
60615;BMP280;46444;45.590;5.284;2023-01-04T07:56:10;100439.09;;;8.79
60615;BMP280;46444;45.590;5.284;2023-01-04T07:58:35;100445.63;;;8.77
60615;BMP280;46444;45.590;5.284;2023-01-04T08:03:32;100446.81;;;8.74
60615;BMP280;46444;45.590;5.284;2023-01-04T08:06:02;100453.91;;;8.82
60615;BMP280;46444;45.590;5.284;2023-01-04T08:08:27;100457.31;;;8.76
60615;BMP280;46444;45.590;5.284;2023-01-04T08:10:52;100451.06;;;8.69
60615;BMP280;46444;45.590;5.284;2023-01-04T08:13:18;100448.50;;;8.75
60615;BMP280;46444;45.590;5.284;2023-01-04T08:15:43;100452.25;;;8.66
60615;BMP280;46444;45.590;5.284;2023-01-04T08:18:08;100452.38;;;8.73
60615;BMP280;46444;45.590;5.284;2023-01-04T08:20:34;100461.44;;;8.64
60615;BMP280;46444;45.590;5.284;2023-01-04T08:22:59;100456.13;;;8.78
60615;BMP280;46444;45.590;5.284;2023-01-04T08:25:24;100474.94;;;8.77
60615;BMP280;46444;45.590;5.284;2023-01-04T08:27:50;100474.22;;;8.83
60615;BMP280;46444;45.590;5.284;2023-01-04T08:30:15;100461.09;;;8.96
60615;BMP280;46444;45.590;5.284;2023-01-04T08:32:41;100455.19;;;9.00
60615;BMP280;46444;45.590;5.284;2023-01-04T08:35:06;100469.16;;;9.02
60615;BMP280;46444;45.590;5.284;2023-01-04T08:37:32;100464.25;;;9.06
60615;BMP280;46444;45.590;5.284;2023-01-04T08:39:59;100471.63;;;9.04
60615;BMP280;46444;45.590;5.284;2023-01-04T08:42:24;100466.41;;;9.10
60615;BMP280;46444;45.590;5.284;2023-01-04T08:44:50;100476.22;;;9.10
60615;BMP280;46444;45.590;5.284;2023-01-04T08:47:15;100474.19;;;9.12
60615;BMP280;46444;45.590;5.284;2023-01-04T08:49:40;100473.81;;;9.15
60615;BMP280;46444;45.590;5.284;2023-01-04T08:52:06;100469.25;;;9.09
60615;BMP280;46444;45.590;5.284;2023-01-04T08:54:33;100468.59;;;9.07
60615;BMP280;46444;45.590;5.284;2023-01-04T08:56:58;100466.75;;;9.07
60615;BMP280;46444;45.590;5.284;2023-01-04T08:59:23;100461.13;;;9.17
60615;BMP280;46444;45.590;5.284;2023-01-04T09:01:49;100466.22;;;8.97
60615;BMP280;46444;45.590;5.284;2023-01-04T09:04:14;100457.00;;;9.14
60615;BMP280;46444;45.590;5.284;2023-01-04T09:06:40;100461.97;;;9.17
60615;BMP280;46444;45.590;5.284;2023-01-04T09:09:06;100461.66;;;9.27
60615;BMP280;46444;45.590;5.284;2023-01-04T09:11:32;100464.78;;;9.30
60615;BMP280;46444;45.590;5.284;2023-01-04T09:13:59;100455.25;;;9.07
60615;BMP280;46444;45.590;5.284;2023-01-04T09:16:25;100454.31;;;9.14
60615;BMP280;46444;45.590;5.284;2023-01-04T09:18:50;100459.97;;;8.90
60615;BMP280;46444;45.590;5.284;2023-01-04T09:21:18;100464.25;;;9.06
60615;BMP280;46444;45.590;5.284;2023-01-04T09:23:44;100465.72;;;9.23
60615;BMP280;46444;45.590;5.284;2023-01-04T09:26:12;100458.84;;;9.14
60615;BMP280;46444;45.590;5.284;2023-01-04T09:28:38;100459.75;;;9.21
60615;BMP280;46444;45.590;5.284;2023-01-04T09:31:05;100461.66;;;9.27
60615;BMP280;46444;45.590;5.284;2023-01-04T09:33:31;100453.22;;;9.44
60615;BMP280;46444;45.590;5.284;2023-01-04T09:36:02;100458.13;;;9.41
60615;BMP280;46444;45.590;5.284;2023-01-04T09:38:28;100462.69;;;9.47
60615;BMP280;46444;45.590;5.284;2023-01-04T09:41:06;100461.13;;;9.52
60615;BMP280;46444;45.590;5.284;2023-01-04T09:43:54;100457.56;;;9.66
60615;BMP280;46444;45.590;5.284;2023-01-04T09:46:41;100463.50;;;9.62
60615;BMP280;46444;45.590;5.284;2023-01-04T09:49:36;100465.50;;;9.39
60615;BMP280;46444;45.590;5.284;2023-01-04T09:52:13;100476.44;;;9.65
60615;BMP280;46444;45.590;5.284;2023-01-04T09:54:43;100475.81;;;9.63
60615;BMP280;46444;45.590;5.284;2023-01-04T09:57:31;100480.22;;;9.70
60615;BMP280;46444;45.590;5.284;2023-01-04T10:00:19;100465.53;;;9.81
60615;BMP280;46444;45.590;5.284;2023-01-04T10:02:50;100472.38;;;9.69
60615;BMP280;46444;45.590;5.284;2023-01-04T10:05:23;100471.22;;;9.78
60615;BMP280;46444;45.590;5.284;2023-01-04T10:07:50;100471.13;;;9.86
60615;BMP280;46444;45.590;5.284;2023-01-04T10:10:19;100477.94;;;9.88
60615;BMP280;46444;45.590;5.284;2023-01-04T10:17:58;100491.41;;;10.01
60615;BMP280;46444;45.590;5.284;2023-01-04T10:34:00;100486.19;;;10.14
60615;BMP280;46444;45.590;5.284;2023-01-04T10:36:30;100482.47;;;10.09
60615;BMP280;46444;45.590;5.284;2023-01-04T10:39:04;100482.13;;;10.18
60615;BMP280;46444;45.590;5.284;2023-01-04T10:41:36;100483.19;;;10.24
60615;BMP280;46444;45.590;5.284;2023-01-04T10:47:10;100482.94;;;10.19
60615;BMP280;46444;45.590;5.284;2023-01-04T10:49:55;100475.94;;;10.18
60615;BMP280;46444;45.590;5.284;2023-01-04T10:52:53;100470.75;;;10.10
60615;BMP280;46444;45.590;5.284;2023-01-04T10:58:37;100448.19;;;10.19
60615;BMP280;46444;45.590;5.284;2023-01-04T11:01:08;100452.84;;;10.31
60615;BMP280;46444;45.590;5.284;2023-01-04T11:03:46;100446.31;;;10.13
60615;BMP280;46444;45.590;5.284;2023-01-04T11:06:21;100446.81;;;10.23
60615;BMP280;46444;45.590;5.284;2023-01-04T11:08:55;100447.06;;;10.28
60615;BMP280;46444;45.590;5.284;2023-01-04T11:11:24;100437.22;;;10.35
60615;BMP280;46444;45.590;5.284;2023-01-04T11:13:49;100438.28;;;10.40
60615;BMP280;46444;45.590;5.284;2023-01-04T11:16:15;100430.69;;;10.44
60615;BMP280;46444;45.590;5.284;2023-01-04T11:18:42;100421.50;;;10.53
60615;BMP280;46444;45.590;5.284;2023-01-04T11:21:11;100415.13;;;10.54
60615;BMP280;46444;45.590;5.284;2023-01-04T11:23:38;100410.22;;;10.51
60615;BMP280;46444;45.590;5.284;2023-01-04T11:26:25;100397.50;;;10.59
60615;BMP280;46444;45.590;5.284;2023-01-04T11:28:59;100405.38;;;10.74
60615;BMP280;46444;45.590;5.284;2023-01-04T11:31:45;100395.09;;;10.71
60615;BMP280;46444;45.590;5.284;2023-01-04T11:34:12;100396.78;;;10.85
60615;BMP280;46444;45.590;5.284;2023-01-04T11:39:26;100385.09;;;10.92
60615;BMP280;46444;45.590;5.284;2023-01-04T11:41:57;100389.44;;;11.00
60615;BMP280;46444;45.590;5.284;2023-01-04T11:44:24;100382.25;;;11.07
60615;BMP280;46444;45.590;5.284;2023-01-04T11:47:15;100390.53;;;11.18
60615;BMP280;46444;45.590;5.284;2023-01-04T11:49:41;100378.59;;;11.14
60615;BMP280;46444;45.590;5.284;2023-01-04T11:54:51;100380.47;;;11.27
60615;BMP280;46444;45.590;5.284;2023-01-04T11:57:18;100388.72;;;11.32
60615;BMP280;46444;45.590;5.284;2023-01-04T11:59:43;100381.50;;;11.39
60615;BMP280;46444;45.590;5.284;2023-01-04T12:02:25;100375.97;;;11.47
60615;BMP280;46444;45.590;5.284;2023-01-04T12:04:51;100393.88;;;11.46
60615;BMP280;46444;45.590;5.284;2023-01-04T12:07:27;100392.84;;;11.41
60615;BMP280;46444;45.590;5.284;2023-01-04T12:09:55;100387.53;;;11.54
60615;BMP280;46444;45.590;5.284;2023-01-04T12:12:22;100386.50;;;11.55
60615;BMP280;46444;45.590;5.284;2023-01-04T12:14:49;100393.72;;;11.54
60615;BMP280;46444;45.590;5.284;2023-01-04T12:17:27;100394.09;;;11.51
60615;BMP280;46444;45.590;5.284;2023-01-04T12:19:55;100393.28;;;11.57
60615;BMP280;46444;45.590;5.284;2023-01-04T12:22:36;100399.59;;;11.24
60615;BMP280;46444;45.590;5.284;2023-01-04T12:25:04;100393.25;;;11.31
60615;BMP280;46444;45.590;5.284;2023-01-04T12:27:32;100388.28;;;11.28
60615;BMP280;46444;45.590;5.284;2023-01-04T12:30:05;100389.47;;;11.13
60615;BMP280;46444;45.590;5.284;2023-01-04T12:34:57;100374.94;;;11.35
60615;BMP280;46444;45.590;5.284;2023-01-04T12:45:41;100352.09;;;11.52
60615;BMP280;46444;45.590;5.284;2023-01-04T12:51:20;100349.00;;;11.55
60615;BMP280;46444;45.590;5.284;2023-01-04T12:53:54;100361.16;;;11.44
60615;BMP280;46444;45.590;5.284;2023-01-04T12:56:20;100345.09;;;11.57
60615;BMP280;46444;45.590;5.284;2023-01-04T12:59:06;100353.72;;;11.46
60615;BMP280;46444;45.590;5.284;2023-01-04T13:01:32;100344.31;;;11.63
60615;BMP280;46444;45.590;5.284;2023-01-04T13:04:48;100342.25;;;11.72
60615;BMP280;46444;45.590;5.284;2023-01-04T13:06:48;100344.31;;;11.63
60615;BMP280;46444;45.590;5.284;2023-01-04T13:09:21;100343.91;;;11.66
60615;BMP280;46444;45.590;5.284;2023-01-04T13:12:06;100340.59;;;11.84
60615;BMP280;46444;45.590;5.284;2023-01-04T13:14:46;100340.78;;;11.82
60615;BMP280;46444;45.590;5.284;2023-01-04T13:17:25;100341.00;;;11.81
60615;BMP280;46444;45.590;5.284;2023-01-04T13:19:51;100327.81;;;11.73
60615;BMP280;46444;45.590;5.284;2023-01-04T13:22:19;100323.09;;;11.68
60615;BMP280;46444;45.590;5.284;2023-01-04T13:24:46;100321.41;;;11.87
60615;BMP280;46444;45.590;5.284;2023-01-04T13:27:20;100307.19;;;11.80
60615;BMP280;46444;45.590;5.284;2023-01-04T13:29:47;100316.69;;;11.89
60615;BMP280;46444;45.590;5.284;2023-01-04T13:32:23;100315.44;;;11.91
60615;BMP280;46444;45.590;5.284;2023-01-04T13:37:24;100315.44;;;11.65
60615;BMP280;46444;45.590;5.284;2023-01-04T13:39:58;100317.13;;;11.66
60615;BMP280;46444;45.590;5.284;2023-01-04T13:42:31;100315.66;;;11.77
60615;BMP280;46444;45.590;5.284;2023-01-04T13:47:39;100316.28;;;11.66
60615;BMP280;46444;45.590;5.284;2023-01-04T13:50:12;100326.59;;;11.75
60615;BMP280;46444;45.590;5.284;2023-01-04T13:52:43;100325.34;;;11.78
60615;BMP280;46444;45.590;5.284;2023-01-04T13:55:22;100311.34;;;11.63
60615;BMP280;46444;45.590;5.284;2023-01-04T13:58:00;100309.88;;;11.80
60615;BMP280;46444;45.590;5.284;2023-01-04T14:00:29;100314.63;;;11.78
60615;BMP280;46444;45.590;5.284;2023-01-04T14:03:12;100306.81;;;11.70
60615;BMP280;46444;45.590;5.284;2023-01-04T14:05:47;100305.16;;;11.82
60615;BMP280;46444;45.590;5.284;2023-01-04T14:08:19;100300.41;;;11.84
60615;BMP280;46444;45.590;5.284;2023-01-04T14:10:47;100308.00;;;11.87
60615;BMP280;46444;45.590;5.284;2023-01-04T14:13:17;100306.81;;;11.83
60615;BMP280;46444;45.590;5.284;2023-01-04T14:15:43;100300.41;;;11.90
60615;BMP280;46444;45.590;5.284;2023-01-04T14:18:28;100303.28;;;11.89
60615;BMP280;46444;45.590;5.284;2023-01-04T14:20:54;100310.91;;;11.98
60615;BMP280;46444;45.590;5.284;2023-01-04T14:23:26;100302.03;;;11.98
60615;BMP280;46444;45.590;5.284;2023-01-04T14:25:52;100296.06;;;12.02
60615;BMP280;46444;45.590;5.284;2023-01-04T14:33:21;100290.28;;;11.99
60615;BMP280;46444;45.590;5.284;2023-01-04T14:38:36;100301.63;;;12.01
60615;BMP280;46444;45.590;5.284;2023-01-04T14:41:32;100292.94;;;11.99
60615;BMP280;46444;45.590;5.284;2023-01-04T14:44:18;100294.81;;;11.98
60615;BMP280;46444;45.590;5.284;2023-01-04T14:46:51;100289.88;;;12.02
60615;BMP280;46444;45.590;5.284;2023-01-04T14:49:17;100289.47;;;11.98
60615;BMP280;46444;45.590;5.284;2023-01-04T14:51:52;100297.91;;;12.02
60615;BMP280;46444;45.590;5.284;2023-01-04T14:54:18;100286.16;;;12.03
60615;BMP280;46444;45.590;5.284;2023-01-04T14:56:44;100285.75;;;12.06
60615;BMP280;46444;45.590;5.284;2023-01-04T14:59:09;100292.75;;;12.07
60615;BMP280;46444;45.590;5.284;2023-01-04T15:01:35;100296.47;;;12.06
60615;BMP280;46444;45.590;5.284;2023-01-04T15:04:02;100297.69;;;12.03
60615;BMP280;46444;45.590;5.284;2023-01-04T15:06:27;100303.25;;;11.95
60615;BMP280;46444;45.590;5.284;2023-01-04T15:08:53;100295.22;;;11.95
60615;BMP280;46444;45.590;5.284;2023-01-04T15:11:18;100300.59;;;11.82
60615;BMP280;46444;45.590;5.284;2023-01-04T15:13:44;100301.81;;;11.93
60615;BMP280;46444;45.590;5.284;2023-01-04T15:16:15;100305.34;;;11.93
60615;BMP280;46444;45.590;5.284;2023-01-04T15:18:40;100304.31;;;11.88
60615;BMP280;46444;45.590;5.284;2023-01-04T15:21:06;100300.59;;;11.82
60615;BMP280;46444;45.590;5.284;2023-01-04T15:23:34;100305.97;;;11.82
60615;BMP280;46444;45.590;5.284;2023-01-04T15:25:59;100313.00;;;11.77
60615;BMP280;46444;45.590;5.284;2023-01-04T15:28:26;100309.06;;;11.79
60615;BMP280;46444;45.590;5.284;2023-01-04T15:30:51;100303.50;;;11.74
60615;BMP280;46444;45.590;5.284;2023-01-04T15:33:17;100311.34;;;11.76
60615;BMP280;46444;45.590;5.284;2023-01-04T15:35:42;100301.47;;;11.70
60615;BMP280;46444;45.590;5.284;2023-01-04T15:38:07;100301.44;;;11.63
60615;BMP280;46444;45.590;5.284;2023-01-04T15:40:33;100302.69;;;11.61
60615;BMP280;46444;45.590;5.284;2023-01-04T15:43:00;100295.91;;;11.65
60615;BMP280;46444;45.590;5.284;2023-01-04T15:45:27;100309.28;;;11.65
60615;BMP280;46444;45.590;5.284;2023-01-04T15:47:53;100302.28;;;11.64
60615;BMP280;46444;45.590;5.284;2023-01-04T15:50:22;100300.22;;;11.59
60615;BMP280;46444;45.590;5.284;2023-01-04T15:52:47;100299.56;;;11.51
60615;BMP280;46444;45.590;5.284;2023-01-04T15:55:13;100300.19;;;11.53
60615;BMP280;46444;45.590;5.284;2023-01-04T15:57:38;100303.47;;;11.55
60615;BMP280;46444;45.590;5.284;2023-01-04T16:00:04;100308.03;;;11.54
60615;BMP280;46444;45.590;5.284;2023-01-04T16:02:31;100303.06;;;11.51
60615;BMP280;46444;45.590;5.284;2023-01-04T16:04:56;100299.38;;;11.52
60615;BMP280;46444;45.590;5.284;2023-01-04T16:07:21;100291.97;;;11.48
60615;BMP280;46444;45.590;5.284;2023-01-04T16:09:47;100296.25;;;11.42
60615;BMP280;46444;45.590;5.284;2023-01-04T16:12:12;100301.03;;;11.47
60615;BMP280;46444;45.590;5.284;2023-01-04T16:14:56;100305.13;;;11.43
60615;BMP280;46444;45.590;5.284;2023-01-04T16:17:21;100294.22;;;11.38
60615;BMP280;46444;45.590;5.284;2023-01-04T16:19:48;100294.84;;;11.33
60615;BMP280;46444;45.590;5.284;2023-01-04T16:22:14;100290.09;;;11.29
60615;BMP280;46444;45.590;5.284;2023-01-04T16:24:40;100303.88;;;11.26
60615;BMP280;46444;45.590;5.284;2023-01-04T16:27:05;100293.97;;;11.20
60615;BMP280;46444;45.590;5.284;2023-01-04T16:29:30;100306.16;;;11.16
60615;BMP280;46444;45.590;5.284;2023-01-04T16:31:55;100298.13;;;11.16
60615;BMP280;46444;45.590;5.284;2023-01-04T16:34:22;100305.50;;;11.14
60615;BMP280;46444;45.590;5.284;2023-01-04T16:36:48;100301.59;;;11.10
60615;BMP280;46444;45.590;5.284;2023-01-04T16:39:14;100301.16;;;11.06
60615;BMP280;46444;45.590;5.284;2023-01-04T16:41:39;100298.50;;;11.06
60615;BMP280;46444;45.590;5.284;2023-01-04T16:44:05;100292.72;;;11.03
60615;BMP280;46444;45.590;5.284;2023-01-04T16:46:34;100295.63;;;11.01
60615;BMP280;46444;45.590;5.284;2023-01-04T16:51:28;100299.72;;;10.97
60615;BMP280;46444;45.590;5.284;2023-01-04T16:53:54;100301.56;;;10.97
60615;BMP280;46444;45.590;5.284;2023-01-04T16:56:21;100303.44;;;10.96
60615;BMP280;46444;45.590;5.284;2023-01-04T16:58:47;100302.59;;;10.96
60615;BMP280;46444;45.590;5.284;2023-01-04T17:01:18;100306.09;;;10.96
60615;BMP280;46444;45.590;5.284;2023-01-04T17:03:45;100303.63;;;10.95
60615;BMP280;46444;45.590;5.284;2023-01-04T17:06:19;100308.34;;;10.93
60615;BMP280;46444;45.590;5.284;2023-01-04T17:08:46;100311.22;;;10.91
60615;BMP280;46444;45.590;5.284;2023-01-04T17:11:14;100307.72;;;10.91
60615;BMP280;46444;45.590;5.284;2023-01-04T17:13:40;100306.50;;;10.87
60615;BMP280;46444;45.590;5.284;2023-01-04T17:16:06;100309.75;;;10.82
60615;BMP280;46444;45.590;5.284;2023-01-04T17:18:33;100306.25;;;10.82
60615;BMP280;46444;45.590;5.284;2023-01-04T17:21:00;100309.31;;;10.79
60615;BMP280;46444;45.590;5.284;2023-01-04T17:23:27;100312.41;;;10.82
60615;BMP280;46444;45.590;5.284;2023-01-04T17:25:53;100301.31;;;10.79
60615;BMP280;46444;45.590;5.284;2023-01-04T17:28:19;100311.63;;;10.82
60615;BMP280;46444;45.590;5.284;2023-01-04T17:30:45;100307.28;;;10.81
60615;BMP280;46444;45.590;5.284;2023-01-04T17:33:11;100312.41;;;10.82
60615;BMP280;46444;45.590;5.284;2023-01-04T17:35:37;100313.25;;;10.83
60615;BMP280;46444;45.590;5.284;2023-01-04T17:38:03;100307.72;;;10.84
60615;BMP280;46444;45.590;5.284;2023-01-04T17:40:29;100307.91;;;10.83
60615;BMP280;46444;45.590;5.284;2023-01-04T17:43:16;100303.41;;;10.83
60615;BMP280;46444;45.590;5.284;2023-01-04T17:46:20;100307.91;;;10.83
60615;BMP280;46444;45.590;5.284;2023-01-04T17:52:25;100302.94;;;10.80
60615;BMP280;46444;45.590;5.284;2023-01-04T17:58:59;100312.41;;;10.82
60615;BMP280;46444;45.590;5.284;2023-01-04T18:02:09;100312.84;;;10.86
60615;BMP280;46444;45.590;5.284;2023-01-04T18:04:42;100309.16;;;10.87
60615;BMP280;46444;45.590;5.284;2023-01-04T18:07:40;100310.81;;;10.88
60615;BMP280;46444;45.590;5.284;2023-01-04T18:10:54;100314.28;;;10.88
60615;BMP280;46444;45.590;5.284;2023-01-04T18:13:21;100312.44;;;10.89
60615;BMP280;46444;45.590;5.284;2023-01-04T18:16:26;100309.97;;;10.87
60615;BMP280;46444;45.590;5.284;2023-01-04T18:19:00;100310.81;;;10.88
60615;BMP280;46444;45.590;5.284;2023-01-04T18:22:15;100311.84;;;10.87
60615;BMP280;46444;45.590;5.284;2023-01-04T18:24:57;100316.34;;;10.86
60615;BMP280;46444;45.590;5.284;2023-01-04T18:27:51;100316.16;;;10.88
60615;BMP280;46444;45.590;5.284;2023-01-04T18:30:18;100315.13;;;10.89
60615;BMP280;46444;45.590;5.284;2023-01-04T18:36:18;100314.09;;;10.90
60615;BMP280;46444;45.590;5.284;2023-01-04T18:39:56;100316.13;;;10.75
60615;BMP280;46444;45.590;5.284;2023-01-04T18:43:17;100317.31;;;10.66
60615;BMP280;46444;45.590;5.284;2023-01-04T18:45:42;100312.38;;;10.69
60615;BMP280;46444;45.590;5.284;2023-01-04T18:52:05;100316.09;;;10.68
60615;BMP280;46444;45.590;5.284;2023-01-04T18:58:34;100314.44;;;10.74
60615;BMP280;46444;45.590;5.284;2023-01-04T19:04:44;100307.06;;;10.76
60615;BMP280;46444;45.590;5.284;2023-01-04T19:11:14;100300.25;;;10.67
60615;BMP280;46444;45.590;5.284;2023-01-04T19:14:10;100295.69;;;10.61
60615;BMP280;46444;45.590;5.284;2023-01-04T19:17:01;100295.91;;;10.59
60615;BMP280;46444;45.590;5.284;2023-01-04T19:20:09;100293.25;;;10.59
60615;BMP280;46444;45.590;5.284;2023-01-04T19:23:04;100290.56;;;10.59
60615;BMP280;46444;45.590;5.284;2023-01-04T19:26:50;100291.38;;;10.53
60615;BMP280;46444;45.590;5.284;2023-01-04T19:30:15;100296.25;;;10.50
60615;BMP280;46444;45.590;5.284;2023-01-04T19:33:19;100295.41;;;10.43
60615;BMP280;46444;45.590;5.284;2023-01-04T19:42:48;100293.72;;;10.29
60615;BMP280;46444;45.590;5.284;2023-01-04T19:48:56;100289.78;;;10.25
60615;BMP280;46444;45.590;5.284;2023-01-04T20:02:51;100282.56;;;10.19
60615;BMP280;46444;45.590;5.284;2023-01-04T20:05:37;100293.25;;;10.19
60615;BMP280;46444;45.590;5.284;2023-01-04T20:08:31;100286.06;;;10.19
60615;BMP280;46444;45.590;5.284;2023-01-04T20:11:49;100283.19;;;10.21
60615;BMP280;46444;45.590;5.284;2023-01-04T20:14:24;100287.31;;;10.23
60615;BMP280;46444;45.590;5.284;2023-01-04T20:20:49;100285.88;;;10.21
60615;BMP280;46444;45.590;5.284;2023-01-04T20:29:07;100286.50;;;10.23
